Terminal Aerodrome Forecast
Issued by NWS Paducah, KY

Home | Current Version | Previous Version | Text Only | Print | Product List | Glossary On
Versions: 1 2 3 4 5 6 7 8 9 10 11 12 13 14 15 16
000
FTUS43 KPAH 160500
TAFEVV
TAF
KEVV 160532Z 1606/1706 24008G15KT P6SM SCT025 BKN070
      TEMPO 1606/1607 5SM SHRA BR BKN025
     FM160800 25010G17KT P6SM OVC025
     FM161100 25010G17KT P6SM OVC015
     FM161500 26014G22KT P6SM OVC009
     FM162300 28008KT P6SM OVC012=

USA.gov is the U.S. government's official web portal to all federal, state and local government web resources and services.